createdAt,value
2023-03-03T00:02:14.137Z,71.43
2023-03-03T00:07:21.610Z,74.40
2023-03-03T00:12:26.376Z,72.32
2023-03-03T00:17:30.777Z,69.93
2023-03-03T00:22:36.746Z,70.50
2023-03-03T00:27:38.360Z,68.47
2023-03-03T00:32:47.165Z,67.32
2023-03-03T00:37:57.123Z,72.05
2023-03-03T00:43:00.580Z,65.70
2023-03-03T00:48:43.825Z,74.47
2023-03-03T00:53:45.778Z,72.05
2023-03-03T00:58:50.510Z,78.07
2023-03-03T01:03:54.448Z,83.03
2023-03-03T01:08:57.364Z,74.13
2023-03-03T01:13:59.430Z,90.25
2023-03-03T01:19:02.296Z,86.03
2023-03-03T01:24:04.080Z,86.40
2023-03-03T01:29:05.802Z,86.00
2023-03-03T01:34:08.351Z,79.27
2023-03-03T01:39:11.113Z,80.60
2023-03-03T01:44:16.472Z,82.47
2023-03-03T01:49:29.022Z,85.75
2023-03-03T01:54:44.113Z,86.80
2023-03-03T01:59:50.539Z,83.30
2023-03-03T02:04:52.321Z,79.55
2023-03-03T02:10:11.559Z,85.40
2023-03-03T02:15:37.333Z,81.93
2023-03-03T02:20:58.402Z,87.50
2023-03-03T02:26:11.521Z,83.80
2023-03-03T02:31:17.104Z,86.75
2023-03-03T02:36:26.731Z,80.43
2023-03-03T02:41:51.364Z,79.25
2023-03-03T02:46:54.780Z,79.65
2023-03-03T02:51:57.023Z,87.80
2023-03-03T02:57:02.468Z,84.85
2023-03-03T03:02:04.204Z,92.07
2023-03-03T03:07:06.043Z,88.27
2023-03-03T03:12:11.396Z,79.55
2023-03-03T03:17:14.810Z,83.30
2023-03-03T03:22:19.524Z,84.40
2023-03-03T03:27:23.457Z,80.00
2023-03-03T03:32:25.875Z,79.80
2023-03-03T03:37:27.793Z,90.27
2023-03-03T03:42:29.800Z,80.50
2023-03-03T03:47:32.760Z,91.07
2023-03-03T03:52:35.158Z,91.68
2023-03-03T03:57:38.643Z,87.47
2023-03-03T04:02:40.585Z,83.50
2023-03-03T04:07:46.486Z,91.30
2023-03-03T04:12:49.987Z,85.75
2023-03-03T04:17:52.658Z,92.30
2023-03-03T04:22:54.457Z,82.67
2023-03-03T04:27:56.349Z,83.03
2023-03-03T04:32:58.508Z,86.28
2023-03-03T04:38:02.158Z,76.90
2023-03-03T04:43:04.701Z,86.03
2023-03-03T04:48:07.866Z,84.53
2023-03-03T04:53:11.855Z,84.57
2023-03-03T04:58:15.984Z,83.80
2023-03-03T05:03:18.284Z,87.03
2023-03-03T05:08:20.362Z,87.60
2023-03-03T05:13:22.545Z,93.07
2023-03-03T05:18:25.739Z,85.38
2023-03-03T05:23:27.719Z,95.03
2023-03-03T05:28:29.492Z,85.07
2023-03-03T05:33:31.194Z,89.57
2023-03-03T05:38:33.585Z,79.03
2023-03-03T05:43:35.607Z,87.18
2023-03-03T05:48:37.308Z,88.10
2023-03-03T05:53:39.318Z,95.25
2023-03-03T05:58:41.727Z,88.43
2023-03-03T06:03:43.575Z,89.05
2023-03-03T06:08:45.963Z,86.77
2023-03-03T06:13:47.700Z,78.43
2023-03-03T06:18:50.659Z,89.55
2023-03-03T06:23:54.949Z,88.00
2023-03-03T06:29:01.535Z,76.40
2023-03-03T06:34:05.308Z,83.88
2023-03-03T06:39:07.253Z,81.13
2023-03-03T06:44:09.038Z,80.20
2023-03-03T06:49:10.703Z,83.32
2023-03-03T06:54:18.174Z,80.88
2023-03-03T06:59:23.719Z,87.55
2023-03-03T07:04:31.729Z,89.18
2023-03-03T07:09:33.525Z,86.75
2023-03-03T07:14:43.210Z,91.03
2023-03-03T07:19:45.613Z,90.70
2023-03-03T07:24:52.994Z,87.53
2023-03-03T07:30:16.106Z,85.05
2023-03-03T07:35:20.451Z,84.50
2023-03-03T07:40:37.297Z,83.35
2023-03-03T07:45:38.950Z,84.85
2023-03-03T07:50:41.470Z,79.10
2023-03-03T07:55:44.758Z,76.63
2023-03-03T08:01:18.554Z,84.20
2023-03-03T08:06:49.839Z,81.97
2023-03-03T08:12:06.761Z,75.70
2023-03-03T08:17:20.408Z,69.07
2023-03-03T08:22:30.322Z,78.57
2023-03-03T08:27:32.036Z,67.35
2023-03-03T08:32:33.768Z,75.57
2023-03-03T08:37:36.040Z,76.40
2023-03-03T08:42:37.668Z,64.43
2023-03-03T08:47:39.687Z,68.93
2023-03-03T08:52:41.561Z,70.03
2023-03-03T08:57:43.434Z,66.23
2023-03-03T09:02:45.167Z,68.10
2023-03-03T09:07:48.019Z,74.90
2023-03-03T09:12:50.175Z,66.60
2023-03-03T09:17:52.209Z,67.78
2023-03-03T09:22:54.626Z,66.40
2023-03-03T09:27:56.553Z,98.18
2023-03-03T09:32:58.395Z,65.43
2023-03-03T09:38:00.177Z,62.93
2023-03-03T09:43:12.695Z,61.03
2023-03-03T09:48:20.158Z,63.40
2023-03-03T09:54:05.097Z,63.58
2023-03-03T09:59:53.579Z,54.30
2023-03-03T10:05:20.058Z,67.03
2023-03-03T10:10:45.207Z,57.10
2023-03-03T10:16:11.570Z,61.85
2023-03-03T10:21:54.956Z,56.58
2023-03-03T10:32:33.212Z,58.60
2023-03-03T10:38:05.915Z,59.20
2023-03-03T10:43:45.547Z,53.88
2023-03-03T10:48:56.096Z,54.22
2023-03-03T10:54:10.017Z,59.85
2023-03-03T10:59:36.679Z,54.90
2023-03-03T11:05:00.228Z,54.78
2023-03-03T11:10:40.258Z,55.70
2023-03-03T11:16:24.365Z,55.72
2023-03-03T11:21:57.569Z,52.55
2023-03-03T11:27:20.233Z,55.00
2023-03-03T11:32:32.196Z,53.03
2023-03-03T11:38:05.593Z,56.40
2023-03-03T11:43:35.282Z,52.42
2023-03-03T11:48:43.510Z,55.00
2023-03-03T11:53:57.241Z,49.83
2023-03-03T11:59:17.485Z,52.42
2023-03-03T12:04:31.730Z,49.13
2023-03-03T12:09:56.318Z,45.85
2023-03-03T12:14:57.957Z,45.65
2023-03-03T12:20:13.790Z,44.33
2023-03-03T12:25:31.138Z,45.60
2023-03-03T12:30:48.551Z,52.13
2023-03-03T12:36:14.957Z,41.67
2023-03-03T12:41:39.168Z,53.47
2023-03-03T12:46:45.302Z,48.67
2023-03-03T12:52:08.638Z,41.83
2023-03-03T12:57:40.452Z,44.65
2023-03-03T13:02:58.614Z,45.03
2023-03-03T13:08:16.030Z,51.58
2023-03-03T13:13:39.377Z,44.55
2023-03-03T13:18:55.757Z,40.90
2023-03-03T13:24:16.398Z,40.08
2023-03-03T13:29:30.758Z,45.35
2023-03-03T13:35:02.049Z,44.72
2023-03-03T13:40:33.990Z,40.08
2023-03-03T13:45:35.793Z,40.75
2023-03-03T13:50:47.394Z,42.30
2023-03-03T13:56:22.767Z,45.47
2023-03-03T14:01:42.515Z,45.13
2023-03-03T14:06:52.747Z,41.70
2023-03-03T14:12:02.892Z,49.15
2023-03-03T14:17:18.455Z,41.95
2023-03-03T14:22:41.574Z,43.80
2023-03-03T14:28:01.753Z,47.63
2023-03-03T14:33:09.942Z,42.38
2023-03-03T14:38:16.529Z,46.00
2023-03-03T14:43:36.600Z,39.20
2023-03-03T14:48:51.043Z,45.55
2023-03-03T14:54:09.326Z,37.40
2023-03-03T14:59:23.954Z,45.70
2023-03-03T15:04:28.633Z,40.05
2023-03-03T15:09:48.665Z,40.55
2023-03-03T15:15:07.415Z,41.00
2023-03-03T15:20:32.519Z,42.00
2023-03-03T15:25:48.707Z,42.80
2023-03-03T15:31:32.346Z,40.33
2023-03-03T15:37:09.408Z,41.40
2023-03-03T15:42:22.688Z,41.20
2023-03-03T15:47:52.385Z,47.00
2023-03-03T15:53:04.713Z,40.92
2023-03-03T15:58:36.374Z,51.47
2023-03-03T16:03:46.404Z,48.92
2023-03-03T16:09:09.492Z,38.05
2023-03-03T16:14:39.053Z,45.63
2023-03-03T16:20:03.461Z,44.60
2023-03-03T16:25:33.777Z,38.05
2023-03-03T16:30:57.069Z,41.80
2023-03-03T16:36:03.510Z,47.67
2023-03-03T16:41:12.986Z,36.03
2023-03-03T16:46:37.184Z,36.13
2023-03-03T16:51:45.875Z,35.65
2023-03-03T16:57:09.161Z,35.13
2023-03-03T17:02:48.697Z,39.10
2023-03-03T17:08:00.895Z,30.02
2023-03-03T17:13:17.911Z,29.90
2023-03-03T17:18:49.406Z,37.63
2023-03-03T17:24:21.667Z,30.58
2023-03-03T17:29:39.481Z,33.80
2023-03-03T17:35:24.171Z,28.67
2023-03-03T17:40:37.237Z,29.80
2023-03-03T17:45:43.098Z,29.30
2023-03-03T17:51:06.417Z,37.53
2023-03-03T18:01:49.713Z,35.72
2023-03-03T18:07:10.020Z,32.95
2023-03-03T18:12:26.825Z,35.20
2023-03-03T18:17:54.325Z,32.42
2023-03-03T18:22:56.549Z,34.60
2023-03-03T18:33:08.859Z,33.60
2023-03-03T18:38:16.422Z,45.60
2023-03-03T18:43:57.331Z,31.40
2023-03-03T18:49:05.518Z,25.80
2023-03-03T18:54:22.221Z,27.05
2023-03-03T18:59:30.046Z,33.40
2023-03-03T19:04:36.422Z,32.22
2023-03-03T19:10:01.687Z,37.67
2023-03-03T19:15:27.661Z,40.25
2023-03-03T19:20:58.861Z,31.77
2023-03-03T19:26:30.613Z,37.35
2023-03-03T19:31:51.342Z,40.20
2023-03-03T19:37:10.926Z,42.50
2023-03-03T19:42:26.455Z,50.13
2023-03-03T19:47:40.073Z,48.72
2023-03-03T19:52:54.462Z,52.13
2023-03-03T19:58:12.265Z,45.67
2023-03-03T20:03:22.862Z,53.55
2023-03-03T20:08:53.529Z,42.50
2023-03-03T20:14:05.629Z,42.30
2023-03-03T20:19:20.321Z,44.80
2023-03-03T20:25:07.940Z,45.47
2023-03-03T20:30:50.547Z,50.88
2023-03-03T20:36:18.441Z,50.40
2023-03-03T20:41:38.629Z,46.20
2023-03-03T20:47:11.317Z,50.95
2023-03-03T20:52:30.224Z,48.63
2023-03-03T20:57:38.430Z,45.83
2023-03-03T21:02:43.975Z,43.55
2023-03-03T21:07:57.947Z,44.95
2023-03-03T21:13:39.484Z,51.75
2023-03-03T21:18:41.601Z,47.67
2023-03-03T21:23:43.767Z,54.75
2023-03-03T21:29:02.223Z,49.40
2023-03-03T21:34:19.532Z,53.50
2023-03-03T21:39:25.906Z,50.10
2023-03-03T21:44:46.587Z,50.08
2023-03-03T21:49:52.277Z,48.88
2023-03-03T21:54:54.680Z,50.47
2023-03-03T21:59:56.860Z,46.47
2023-03-03T22:04:59.342Z,41.95
2023-03-03T22:10:01.040Z,54.95
2023-03-03T22:15:02.860Z,44.15
2023-03-03T22:20:04.875Z,50.43
2023-03-03T22:25:07.538Z,50.05
2023-03-03T22:35:11.263Z,44.20
2023-03-03T22:40:14.498Z,52.20
2023-03-03T22:45:16.444Z,47.38
2023-03-03T22:50:19.404Z,48.47
2023-03-03T22:55:22.023Z,44.30
2023-03-03T23:05:25.675Z,47.83
2023-03-03T23:10:27.594Z,46.10
2023-03-03T23:15:29.449Z,43.93
2023-03-03T23:20:32.132Z,47.13
2023-03-03T23:25:34.374Z,46.60
2023-03-03T23:30:36.121Z,36.30
2023-03-03T23:35:38.291Z,41.53
2023-03-03T23:40:40.013Z,41.53
2023-03-03T23:45:42.151Z,38.50
2023-03-03T23:50:43.920Z,37.33
2023-03-03T23:55:45.813Z,36.10
